Time;durP1;ratioP1;P1;durP2;ratioP2;P2;SDS_P1;SDS_P2;PMS_P1;PMS_P2;Temp;Humidity;BMP_temperature;BMP_pressure;BME280_temperature;BME280_humidity;BME280_pressure;Samples;Min_cycle;Max_cycle;Signal;HPM_P1;HPM_P2
2024/01/15 00:04:20;;;;;;;18.60;9.30;;;;;;;-2.03;81.45;98217.44;7250413;40;20402;31
2024/01/15 00:15:01;;;;;;;21.30;9.57;;;;;;;-2.02;81.23;98210.34;7259548;39;20490;31
2024/01/15 00:25:41;;;;;;;15.40;7.55;;;;;;;-2.06;81.38;98185.16;7268896;40;20731;31
2024/01/15 00:31:17;;;;;;;18.33;9.40;;;;;;;-2.09;81.30;98180.06;7237419;40;20271;31
2024/01/15 00:36:37;;;;;;;17.10;8.77;;;;;;;-2.08;81.15;98177.31;7224032;40;21432;31
2024/01/15 00:42:13;;;;;;;13.90;7.57;;;;;;;-2.11;81.70;98160.88;7216659;40;20308;31
2024/01/15 00:47:49;;;;;;;15.57;7.00;;;;;;;-2.15;82.05;98172.63;7181634;40;20367;31
2024/01/15 00:53:09;;;;;;;12.27;6.43;;;;;;;-2.15;82.12;98173.44;7234592;39;20273;31
2024/01/15 00:58:30;;;;;;;17.07;7.80;;;;;;;-2.14;82.14;98174.28;7262237;40;20335;31
2024/01/15 01:04:07;;;;;;;15.30;6.80;;;;;;;-2.15;82.57;98165.53;7256537;39;20261;31
2024/01/15 01:09:29;;;;;;;15.63;7.60;;;;;;;-2.07;81.83;98186.94;7264850;40;20276;31
2024/01/15 01:15:00;;;;;;;12.25;6.80;;;;;;;-2.05;82.51;98185.00;7305923;39;20317;31
2024/01/15 01:20:36;;;;;;;17.33;7.87;;;;;;;-2.07;82.13;98171.09;7237598;40;20273;31
2024/01/15 01:25:57;;;;;;;16.57;7.80;;;;;;;-2.04;82.36;98189.34;7181147;40;20279;31
2024/01/15 01:31:18;;;;;;;15.83;7.77;;;;;;;-2.02;82.78;98187.41;7169485;40;20243;31
2024/01/15 01:36:54;;;;;;;16.40;7.67;;;;;;;-2.01;82.89;98177.69;7204030;40;20242;31
2024/01/15 01:42:29;;;;;;;13.37;7.13;;;;;;;-1.93;82.25;98183.28;7228044;40;20251;31
2024/01/15 01:48:04;;;;;;;13.60;6.15;;;;;;;-1.96;82.39;98186.97;7216801;40;20353;31
2024/01/15 01:53:41;;;;;;;14.83;7.37;;;;;;;-1.90;82.20;98186.53;7155955;40;20378;31
2024/01/15 01:59:15;;;;;;;13.60;6.40;;;;;;;-1.89;82.48;98182.09;7158384;40;20318;31
2024/01/15 02:04:50;;;;;;;12.53;6.57;;;;;;;-1.86;82.67;98180.06;7173243;40;20381;31
2024/01/15 02:10:26;;;;;;;13.87;5.43;;;;;;;-1.86;82.34;98185.34;7232163;40;20256;31
2024/01/15 02:16:01;;;;;;;9.75;5.10;;;;;;;-1.92;83.28;98183.16;7235296;40;20242;31
2024/01/15 02:21:22;;;;;;;15.65;7.50;;;;;;;-1.85;82.79;98172.97;7201847;40;20508;31
2024/01/15 02:26:58;;;;;;;11.67;6.10;;;;;;;-1.85;82.76;98173.81;7211577;40;20373;31
2024/01/15 02:32:33;;;;;;;15.40;7.63;;;;;;;-1.86;83.54;98173.94;7167572;40;20247;31
2024/01/15 02:37:54;;;;;;;14.70;6.80;;;;;;;-1.79;83.44;98179.56;7193525;40;20238;31
2024/01/15 02:43:30;;;;;;;15.77;7.17;;;;;;;-1.81;82.95;98185.00;7257775;39;20242;31
2024/01/15 02:48:51;;;;;;;17.70;7.60;;;;;;;-1.76;83.49;98182.84;7256543;40;20253;31
2024/01/15 02:54:27;;;;;;;14.03;6.17;;;;;;;-1.69;83.38;98180.59;7256069;39;20299;31
2024/01/15 03:05:43;;;;;;;16.30;8.50;;;;;;;-1.72;83.64;98175.53;7216999;40;20312;31
2024/01/15 03:16:21;;;;;;;14.00;6.90;;;;;;;-1.65;83.70;98176.75;7254961;40;21322;31
2024/01/15 03:21:56;;;;;;;16.70;7.65;;;;;;;-1.61;83.74;98191.41;7269046;40;20264;31
2024/01/15 03:27:31;;;;;;;16.90;8.50;;;;;;;-1.65;83.93;98185.50;7236518;40;20259;31
2024/01/15 03:33:07;;;;;;;14.80;7.47;;;;;;;-1.61;83.56;98167.62;7236501;40;20264;31
2024/01/15 03:43:46;;;;;;;17.45;7.75;;;;;;;-1.58;83.99;98159.50;7193819;40;20844;31
2024/01/15 03:49:26;;;;;;;16.70;8.00;;;;;;;-1.54;83.90;98153.03;7237761;40;20287;31
2024/01/15 03:54:46;;;;;;;17.73;7.80;;;;;;;-1.52;84.31;98148.44;7221223;40;20235;31
2024/01/15 04:00:21;;;;;;;16.67;8.63;;;;;;;-1.55;83.60;98122.28;7279254;40;20272;31
2024/01/15 04:05:54;;;;;;;13.70;7.05;;;;;;;-1.57;84.02;98110.97;7012766;40;20239;31
2024/01/15 04:11:14;;;;;;;14.73;8.07;;;;;;;-1.58;84.69;98094.28;7210578;40;20245;31
2024/01/15 04:16:35;;;;;;;17.60;8.27;;;;;;;-1.51;84.69;98100.78;7254767;40;20256;31
2024/01/15 04:27:16;;;;;;;18.75;9.40;;;;;;;-1.48;85.34;98084.69;7219923;40;20748;31
2024/01/15 04:32:51;;;;;;;11.77;6.70;;;;;;;-1.46;85.43;98096.00;7238343;40;20389;31
2024/01/15 04:38:11;;;;;;;13.80;7.47;;;;;;;-1.41;85.10;98095.63;7205114;40;20243;31
2024/01/15 04:43:47;;;;;;;14.35;8.05;;;;;;;-1.43;86.23;98090.47;7217928;40;20246;31
2024/01/15 04:49:22;;;;;;;10.33;5.87;;;;;;;-1.37;85.66;98082.06;7205499;40;20282;31
2024/01/15 04:54:57;;;;;;;15.30;8.03;;;;;;;-1.38;86.02;98085.66;7194338;40;20248;31
2024/01/15 05:00:31;;;;;;;16.72;9.00;;;;;;;-1.40;85.58;98084.06;7195157;40;21460;31
2024/01/15 05:06:06;;;;;;;13.35;7.50;;;;;;;-1.37;85.46;98090.00;7188847;40;20260;31
2024/01/15 05:11:45;;;;;;;14.70;7.80;;;;;;;-1.30;85.91;98078.91;7163978;40;21501;31
2024/01/15 05:17:21;;;;;;;17.03;8.50;;;;;;;-1.26;85.26;98061.84;7219322;40;20298;31
2024/01/15 05:22:41;;;;;;;15.85;7.40;;;;;;;-1.22;86.11;98058.00;7233098;40;20345;31
2024/01/15 05:28:16;;;;;;;14.60;8.20;;;;;;;-1.17;85.40;98050.56;7238664;39;20378;31
2024/01/15 05:33:52;;;;;;;16.00;7.70;;;;;;;-1.18;86.25;98056.81;7199215;40;20382;31
2024/01/15 05:39:12;;;;;;;12.93;7.30;;;;;;;-1.12;85.82;98054.53;7168138;40;20461;31
2024/01/15 05:44:48;;;;;;;12.70;7.50;;;;;;;-1.13;86.31;98044.91;7218112;40;20261;31
2024/01/15 05:50:22;;;;;;;14.05;7.40;;;;;;;-1.10;86.27;98057.06;7204869;40;20478;31
2024/01/15 05:55:57;;;;;;;17.20;8.20;;;;;;;-1.10;85.79;98067.63;7314686;39;20490;31
2024/01/15 06:01:17;;;;;;;13.93;7.67;;;;;;;-1.05;85.55;98068.91;7308182;39;20639;31
2024/01/15 06:06:53;;;;;;;15.20;7.95;;;;;;;-1.04;86.06;98054.75;7300364;39;20269;31
2024/01/15 06:12:13;;;;;;;13.40;8.00;;;;;;;-0.98;85.43;98053.44;7279825;39;20335;31
2024/01/15 06:17:48;;;;;;;14.87;8.13;;;;;;;-1.02;85.57;98049.34;7286028;39;20288;31
2024/01/15 06:23:24;;;;;;;12.90;7.60;;;;;;;-0.99;85.25;98051.75;7305772;39;20273;31
2024/01/15 06:28:59;;;;;;;12.85;7.20;;;;;;;-0.97;85.95;98049.81;7266596;40;20430;31
2024/01/15 06:39:37;;;;;;;12.70;7.37;;;;;;;-0.96;85.72;98057.63;7259090;40;21375;31
2024/01/15 06:44:57;;;;;;;15.07;8.10;;;;;;;-0.92;85.93;98048.47;7225172;40;20254;31
2024/01/15 06:50:33;;;;;;;14.97;7.90;;;;;;;-0.93;86.68;98044.16;7235231;40;20393;31
2024/01/15 06:56:09;;;;;;;15.10;8.10;;;;;;;-0.86;85.71;98047.13;7184674;40;20313;31
2024/01/15 07:01:30;;;;;;;15.73;8.07;;;;;;;-0.80;86.09;98040.53;7199872;40;20245;31
2024/01/15 07:07:06;;;;;;;12.90;7.47;;;;;;;-0.80;86.00;98048.47;7201434;40;20242;31
2024/01/15 07:12:42;;;;;;;14.47;7.50;;;;;;;-0.80;85.28;98040.53;7236552;40;20266;31
2024/01/15 07:18:17;;;;;;;14.75;7.10;;;;;;;-0.80;86.79;98054.59;7288653;39;20237;31
2024/01/15 07:23:38;;;;;;;13.23;7.33;;;;;;;-0.73;85.83;98047.81;7269550;40;20269;31
2024/01/15 07:34:19;;;;;;;13.20;7.87;;;;;;;-0.73;87.19;98042.53;7267876;39;20292;31
2024/01/15 07:39:54;;;;;;;13.57;7.60;;;;;;;-0.73;86.44;98041.69;7232937;40;20289;31
2024/01/15 07:45:15;;;;;;;13.05;7.55;;;;;;;-0.69;86.59;98038.69;7258092;40;20245;31
2024/01/15 07:50:48;;;;;;;13.55;7.30;;;;;;;-0.65;87.03;98041.91;7161348;40;20262;31
2024/01/15 07:56:23;;;;;;;15.83;8.23;;;;;;;-0.63;86.80;98051.41;7184747;40;20236;31
2024/01/15 08:01:58;;;;;;;13.27;7.20;;;;;;;-0.59;86.89;98036.13;7183632;40;20285;31
2024/01/15 08:07:34;;;;;;;13.27;8.00;;;;;;;-0.59;86.70;98023.75;7198531;40;20263;31
2024/01/15 08:18:14;;;;;;;15.77;8.87;;;;;;;-0.54;86.47;98029.50;7261803;40;20740;31
2024/01/15 08:28:55;;;;;;;15.60;8.10;;;;;;;-0.48;87.05;98025.47;7227734;40;20281;31
2024/01/15 08:39:35;;;;;;;15.60;8.10;;;;;;;-0.41;88.20;98045.19;7325665;39;20676;31
2024/01/15 08:50:16;;;;;;;14.53;8.47;;;;;;;-0.34;88.76;98040.22;7243462;40;20283;31
2024/01/15 08:55:37;;;;;;;13.40;8.20;;;;;;;-0.29;88.49;98049.47;7194531;40;20361;31
2024/01/15 09:00:57;;;;;;;15.25;8.35;;;;;;;-0.24;88.48;98044.63;7202909;40;20238;31
2024/01/15 09:06:33;;;;;;;12.15;7.70;;;;;;;-0.26;89.01;98046.56;7262436;40;20253;31
2024/01/15 09:11:53;;;;;;;12.80;7.43;;;;;;;-0.24;89.33;98042.00;7205909;40;20285;31
2024/01/15 09:17:28;;;;;;;15.27;8.70;;;;;;;-0.20;89.85;98040.75;7195760;40;20278;31
2024/01/15 09:23:03;;;;;;;14.53;8.13;;;;;;;-0.19;89.96;98031.84;7206691;40;20274;31
2024/01/15 09:28:25;;;;;;;16.13;8.50;;;;;;;-0.12;89.42;98048.06;7190944;40;20421;31
2024/01/15 09:34:02;;;;;;;14.40;8.53;;;;;;;-0.11;89.60;98036.50;7218408;40;20274;31
2024/01/15 09:44:53;;;;;;;13.67;9.20;;;;;;;-0.12;90.35;98025.06;7228183;39;21526;31
2024/01/15 09:55:33;;;;;;;10.87;6.37;;;;;;;-0.07;90.91;98025.53;7195529;40;20746;31
2024/01/15 10:01:10;;;;;;;12.83;8.00;;;;;;;-0.01;91.21;98009.13;7217036;40;20246;31
2024/01/15 10:06:45;;;;;;;17.00;10.27;;;;;;;0.08;90.94;98009.31;7171753;40;20269;31
2024/01/15 10:12:21;;;;;;;11.85;6.85;;;;;;;0.19;90.80;98009.22;7176084;40;20247;31
2024/01/15 10:17:59;;;;;;;11.10;6.20;;;;;;;0.22;90.24;98008.97;7141879;40;20491;31
2024/01/15 10:23:33;;;;;;;10.65;6.45;;;;;;;0.30;90.11;98001.19;7140028;40;20242;31
2024/01/15 10:28:54;;;;;;;11.60;6.90;;;;;;;0.32;90.89;97996.59;7177720;40;20241;31
2024/01/15 10:34:31;;;;;;;11.30;6.83;;;;;;;0.33;90.35;97979.72;7178308;40;20508;31
2024/01/15 10:40:06;;;;;;;11.03;6.30;;;;;;;0.41;90.63;97980.75;7238190;40;20257;31
2024/01/15 10:45:41;;;;;;;12.53;7.50;;;;;;;0.48;90.33;97975.75;7203000;40;20242;31
2024/01/15 10:51:19;;;;;;;9.63;6.07;;;;;;;0.52;89.84;97963.91;7192747;40;20345;31
2024/01/15 10:56:54;;;;;;;9.20;6.00;;;;;;;0.54;90.19;97964.59;7202937;40;20312;31
2024/01/15 11:02:29;;;;;;;9.83;6.30;;;;;;;0.50;90.58;97963.19;7058559;40;20246;31
2024/01/15 11:08:04;;;;;;;8.43;5.23;;;;;;;0.54;90.76;97963.75;7240676;40;20249;31
2024/01/15 11:13:40;;;;;;;13.90;7.23;;;;;;;0.53;90.14;97970.88;7181006;40;20335;31
2024/01/15 11:19:19;;;;;;;14.50;7.75;;;;;;;0.58;90.78;97962.50;7137078;40;20270;31
2024/01/15 11:24:55;;;;;;;11.80;7.20;;;;;;;0.58;90.66;97949.25;7163817;40;20378;31
2024/01/15 11:30:15;;;;;;;11.50;6.37;;;;;;;0.69;90.30;97957.97;7189387;40;20400;31
2024/01/15 11:35:51;;;;;;;7.25;4.70;;;;;;;0.70;90.88;97951.66;7283940;39;20244;31
2024/01/15 11:41:30;;;;;;;8.70;5.30;;;;;;;0.71;90.35;97968.41;7298561;39;20370;31
2024/01/15 11:47:05;;;;;;;8.90;5.20;;;;;;;0.75;90.48;97970.66;7249520;40;20570;31
2024/01/15 11:52:40;;;;;;;7.45;5.20;;;;;;;0.78;90.39;97972.22;7249979;40;20254;31
2024/01/15 11:58:17;;;;;;;6.10;4.50;;;;;;;0.78;90.58;97957.16;7204550;40;20451;31
2024/01/15 12:03:52;;;;;;;8.25;5.55;;;;;;;0.84;90.64;97969.84;7203212;40;20242;31
2024/01/15 12:09:12;;;;;;;9.20;5.30;;;;;;;0.90;90.81;97961.34;7238627;40;20373;31
2024/01/15 12:14:49;;;;;;;7.27;5.63;;;;;;;0.96;91.56;97961.78;7215373;40;20281;31
2024/01/15 12:20:25;;;;;;;7.00;4.85;;;;;;;1.03;90.43;97947.84;7178609;40;20732;31
2024/01/15 12:26:01;;;;;;;7.23;4.90;;;;;;;1.07;90.48;97945.75;7189450;40;20272;31
2024/01/15 12:31:37;;;;;;;6.55;4.30;;;;;;;1.11;89.81;97934.72;7168802;40;20657;31
2024/01/15 12:37:12;;;;;;;9.30;5.20;;;;;;;1.14;90.00;97941.56;7142703;40;20229;31
2024/01/15 12:42:47;;;;;;;6.65;4.15;;;;;;;1.20;89.07;97936.53;7175669;40;20247;31
2024/01/15 12:48:24;;;;;;;6.03;4.60;;;;;;;1.25;88.12;97952.88;7185823;40;20246;31
2024/01/15 12:53:44;;;;;;;8.00;4.70;;;;;;;1.31;88.49;97951.50;7174203;40;20324;31
2024/01/15 13:04:23;;;;;;;6.60;4.65;;;;;;;1.38;87.68;97981.78;7280799;39;21361;31
2024/01/15 13:15:04;;;;;;;7.30;6.00;;;;;;;1.31;88.52;97986.84;7238443;40;20269;31
2024/01/15 13:20:40;;;;;;;6.45;4.93;;;;;;;1.22;87.42;97978.84;7216730;40;20262;31
2024/01/15 13:26:15;;;;;;;7.10;5.40;;;;;;;1.24;87.37;97990.16;7206884;40;21526;31
2024/01/15 13:31:50;;;;;;;8.77;5.00;;;;;;;1.26;87.30;97980.25;7183919;40;20344;31
2024/01/15 13:37:27;;;;;;;8.83;5.43;;;;;;;1.34;86.76;97972.44;7161839;40;20244;31
2024/01/15 13:43:06;;;;;;;6.20;4.90;;;;;;;1.33;86.44;97982.22;7157522;40;20259;31
2024/01/15 13:48:23;;;;;;;6.40;4.70;;;;;;;1.30;85.99;97976.34;7160329;40;20225;31
2024/01/15 13:53:59;;;;;;;7.40;5.05;;;;;;;1.34;86.05;97977.75;7186511;40;20600;31
2024/01/15 13:59:34;;;;;;;7.80;4.90;;;;;;;1.36;85.96;97978.47;7205782;40;20711;31
2024/01/15 14:04:54;;;;;;;8.77;5.63;;;;;;;1.39;85.64;98012.69;7205116;40;20244;31
2024/01/15 14:10:32;;;;;;;8.50;5.40;;;;;;;1.32;85.77;97992.94;7222661;40;20261;31
2024/01/15 14:15:51;;;;;;;6.83;4.97;;;;;;;1.39;85.58;98003.87;7223628;40;20238;31
2024/01/15 14:21:11;;;;;;;7.95;5.00;;;;;;;1.37;85.40;98009.31;7198697;40;20250;31
2024/01/15 14:26:47;;;;;;;8.20;4.77;;;;;;;1.25;85.03;98002.47;7246594;39;20272;31
2024/01/15 14:32:22;;;;;;;6.63;4.77;;;;;;;1.18;84.83;98011.97;7254683;39;20655;31
2024/01/15 14:37:43;;;;;;;7.47;4.77;;;;;;;1.19;84.68;98029.53;7255283;40;20246;31
2024/01/15 14:43:21;;;;;;;7.10;4.30;;;;;;;1.18;85.14;98030.53;7226285;40;20245;31
2024/01/15 14:48:55;;;;;;;7.30;5.00;;;;;;;1.16;84.10;98048.38;7234399;40;20260;31
2024/01/15 14:54:16;;;;;;;5.50;3.80;;;;;;;1.11;84.11;98062.06;7239279;40;20616;31
2024/01/15 14:59:51;;;;;;;8.40;4.30;;;;;;;1.06;83.95;98066.94;7215802;40;20247;31
2024/01/15 15:05:13;;;;;;;7.53;4.60;;;;;;;1.06;83.96;98058.97;7179832;40;20244;31
2024/01/15 15:10:32;;;;;;;6.50;4.05;;;;;;;1.06;83.58;98087.31;7160904;40;20274;31
2024/01/15 15:16:05;;;;;;;7.00;4.40;;;;;;;1.02;83.78;98085.91;7245409;40;21341;31
2024/01/15 15:21:26;;;;;;;7.60;4.90;;;;;;;1.04;83.67;98102.53;7199632;40;20786;31
2024/01/15 15:27:00;;;;;;;8.17;5.07;;;;;;;0.99;83.38;98121.50;7243496;40;20250;31
2024/01/15 15:32:37;;;;;;;8.10;4.75;;;;;;;0.97;83.27;98119.94;7200142;40;20380;31
2024/01/15 15:38:12;;;;;;;7.40;4.70;;;;;;;0.95;83.41;98125.41;7217857;40;20384;31
2024/01/15 15:43:47;;;;;;;6.03;4.43;;;;;;;0.94;84.04;98133.47;7180481;40;20427;31
2024/01/15 15:54:28;;;;;;;6.93;4.47;;;;;;;0.90;84.50;98132.91;7158659;40;20402;31
2024/01/15 16:04:51;;;;;;;5.83;3.97;;;;;;;0.96;84.20;98148.31;7232658;40;21326;31
2024/01/15 16:15:35;;;;;;;7.37;4.77;;;;;;;0.85;83.61;98157.19;7260119;40;21258;31
2024/01/15 16:21:11;;;;;;;8.93;5.13;;;;;;;0.83;83.70;98168.91;7257013;40;20674;31
2024/01/15 16:26:31;;;;;;;5.40;3.87;;;;;;;0.84;83.44;98186.47;7237335;40;20352;31
2024/01/15 16:32:07;;;;;;;6.43;4.60;;;;;;;0.81;83.46;98200.00;7262404;39;20257;31
2024/01/15 16:37:28;;;;;;;6.65;4.75;;;;;;;0.81;83.19;98207.97;7220275;40;20792;31
2024/01/15 16:48:09;;;;;;;5.75;4.05;;;;;;;0.75;82.91;98219.91;7258468;40;20259;31
2024/01/15 16:53:30;;;;;;;8.93;4.33;;;;;;;0.73;83.10;98232.47;7278662;39;20245;31
2024/01/15 16:59:05;;;;;;;5.80;4.17;;;;;;;0.71;82.70;98245.00;7281982;40;20322;31
2024/01/15 17:04:41;;;;;;;6.20;3.83;;;;;;;0.66;82.73;98257.00;7237526;40;20257;31
2024/01/15 17:10:18;;;;;;;4.10;3.37;;;;;;;0.67;82.52;98264.81;7210945;40;20356;31
2024/01/15 17:15:38;;;;;;;6.47;3.40;;;;;;;0.68;82.45;98274.44;7213869;40;20258;31
2024/01/15 17:26:17;;;;;;;5.53;3.40;;;;;;;0.65;81.97;98272.06;7276921;39;20285;31
2024/01/15 17:36:42;;;;;;;3.80;3.10;;;;;;;0.64;81.80;98291.56;7233495;40;20277;31
2024/01/15 17:47:21;;;;;;;5.90;3.13;;;;;;;0.59;81.16;98288.47;7308580;39;21300;31
2024/01/15 17:52:42;;;;;;;5.10;3.30;;;;;;;0.57;80.44;98295.69;7317625;39;20260;31
2024/01/15 17:58:17;;;;;;;5.70;3.07;;;;;;;0.57;80.69;98302.81;7120950;39;21234;31
2024/01/15 18:03:53;;;;;;;4.03;2.77;;;;;;;0.54;80.11;98318.97;7221372;40;20251;31
2024/01/15 18:09:16;;;;;;;3.70;2.70;;;;;;;0.59;80.84;98327.38;7159135;40;20259;31
2024/01/15 18:14:34;;;;;;;3.93;2.80;;;;;;;0.54;80.56;98348.97;7198084;40;20248;31
2024/01/15 18:20:11;;;;;;;5.30;2.75;;;;;;;0.51;80.93;98357.19;7233790;40;20704;31
2024/01/15 18:25:32;;;;;;;3.93;2.70;;;;;;;0.53;80.66;98363.19;7291943;39;20249;31
2024/01/15 18:31:07;;;;;;;6.07;2.90;;;;;;;0.48;80.47;98370.69;7303593;39;20237;31
2024/01/15 18:36:46;;;;;;;3.80;2.43;;;;;;;0.48;80.36;98375.16;7269307;40;20260;31
2024/01/15 18:42:02;;;;;;;5.95;3.00;;;;;;;0.52;80.65;98389.84;7241100;40;20371;31
2024/01/15 18:47:37;;;;;;;3.95;2.50;;;;;;;0.52;80.08;98388.03;7256931;40;20242;31
2024/01/15 18:53:13;;;;;;;3.35;2.40;;;;;;;0.53;79.95;98397.62;7237194;40;20408;31
2024/01/15 18:58:48;;;;;;;3.80;2.50;;;;;;;0.58;80.25;98408.72;7262962;40;20376;31
2024/01/15 19:04:10;;;;;;;3.65;2.35;;;;;;;0.58;80.13;98400.75;7219718;40;20250;31
2024/01/15 19:09:44;;;;;;;3.57;2.17;;;;;;;0.54;79.65;98395.84;7219496;40;20250;31
2024/01/15 19:15:17;;;;;;;3.23;2.20;;;;;;;0.52;79.35;98403.94;7215087;40;20238;31
2024/01/15 19:20:52;;;;;;;2.93;2.33;;;;;;;0.53;79.13;98423.34;7248607;40;20386;31
2024/01/15 19:26:48;;;;;;;2.90;2.10;;;;;;;0.53;78.87;98418.84;7309605;39;20243;31
2024/01/15 19:37:12;;;;;;;5.40;2.70;;;;;;;0.48;78.48;98421.06;7218189;40;20741;31
2024/01/15 19:47:53;;;;;;;3.03;1.90;;;;;;;0.45;78.18;98430.06;7288053;39;20746;31
2024/01/15 19:53:13;;;;;;;3.30;2.10;;;;;;;0.46;77.98;98425.63;7338820;39;20257;31
2024/01/15 19:58:35;;;;;;;4.95;2.67;;;;;;;0.45;78.20;98439.81;7323587;39;20357;31
2024/01/15 20:04:07;;;;;;;3.65;1.80;;;;;;;0.39;78.06;98443.00;7294935;39;21416;31
2024/01/15 20:14:45;;;;;;;4.73;2.60;;;;;;;0.42;78.04;98466.59;7258986;40;20305;31
2024/01/15 20:25:26;;;;;;;4.53;2.07;;;;;;;0.40;77.80;98464.03;7270093;39;20291;31
2024/01/15 20:31:01;;;;;;;3.57;2.10;;;;;;;0.41;77.72;98494.91;7257676;39;20252;31
2024/01/15 20:36:21;;;;;;;5.77;2.50;;;;;;;0.44;78.23;98505.25;7218931;40;20756;31
2024/01/15 20:41:58;;;;;;;4.67;2.50;;;;;;;0.44;77.83;98505.25;7245685;40;21426;31
2024/01/15 20:47:33;;;;;;;3.67;2.20;;;;;;;0.48;78.93;98507.69;7257230;40;20241;31
2024/01/15 20:52:53;;;;;;;5.05;2.60;;;;;;;0.53;78.34;98513.47;7237456;40;20246;31
2024/01/15 20:58:30;;;;;;;6.97;5.57;;;;;;;0.54;78.60;98523.94;7237816;40;20349;31
2024/01/15 21:04:06;;;;;;;5.80;3.60;;;;;;;0.58;78.63;98514.75;7232671;40;20247;31
2024/01/15 21:09:25;;;;;;;5.37;3.07;;;;;;;0.57;78.27;98521.03;7203567;40;20294;31
2024/01/15 21:14:59;;;;;;;8.00;3.57;;;;;;;0.51;78.69;98521.53;7203792;40;20609;31
2024/01/15 21:20:34;;;;;;;6.27;3.47;;;;;;;0.53;78.35;98527.53;7182569;40;20258;31
2024/01/15 21:25:55;;;;;;;5.80;2.90;;;;;;;0.53;78.91;98538.13;7187250;40;20258;31
2024/01/15 21:31:28;;;;;;;4.00;2.70;;;;;;;0.45;78.39;98530.78;7195891;40;20246;31
2024/01/15 21:37:03;;;;;;;7.30;4.13;;;;;;;0.43;78.12;98539.84;7209459;40;20274;31
2024/01/15 21:42:38;;;;;;;8.27;2.60;;;;;;;0.39;78.55;98544.53;7204189;40;20277;31
2024/01/15 21:48:14;;;;;;;3.93;2.40;;;;;;;0.37;78.74;98543.81;7226473;40;20261;31
2024/01/15 21:53:35;;;;;;;5.05;2.95;;;;;;;0.39;78.36;98546.34;7217467;40;20241;31
2024/01/15 21:59:09;;;;;;;3.90;2.45;;;;;;;0.38;79.14;98548.16;7259755;40;20220;31
2024/01/15 22:04:43;;;;;;;5.60;2.60;;;;;;;0.34;78.84;98548.50;7206219;40;20382;31
2024/01/15 22:10:16;;;;;;;3.15;2.60;;;;;;;0.39;79.44;98560.44;7136417;40;20240;31
2024/01/15 22:15:51;;;;;;;5.70;2.50;;;;;;;0.34;78.84;98552.00;7168753;40;20293;31
2024/01/15 22:21:27;;;;;;;3.70;2.55;;;;;;;0.35;78.72;98558.16;7156736;40;20265;31
2024/01/15 22:27:02;;;;;;;4.90;2.75;;;;;;;0.35;78.99;98566.09;7144742;40;20252;31
2024/01/15 22:32:37;;;;;;;6.17;2.63;;;;;;;0.33;79.68;98565.38;7218134;40;20232;31
2024/01/15 22:38:13;;;;;;;3.70;2.57;;;;;;;0.29;79.75;98585.97;7136225;40;20259;31
2024/01/15 22:43:48;;;;;;;6.10;3.00;;;;;;;0.29;79.14;98587.75;7159314;40;21276;31
2024/01/15 22:49:23;;;;;;;4.80;2.60;;;;;;;0.29;79.43;98598.37;7178133;40;20351;31
2024/01/15 22:54:59;;;;;;;6.53;3.10;;;;;;;0.25;80.11;98607.50;7165345;40;20297;31
2024/01/15 23:00:20;;;;;;;4.53;2.97;;;;;;;0.26;80.10;98599.44;7178611;40;20260;31
2024/01/15 23:05:55;;;;;;;4.73;3.20;;;;;;;0.29;80.30;98598.37;7235045;40;20245;31
2024/01/15 23:11:31;;;;;;;4.00;2.90;;;;;;;0.23;80.09;98604.97;7235073;40;20262;31
2024/01/15 23:16:52;;;;;;;7.97;4.77;;;;;;;0.24;80.36;98611.97;7219350;40;20268;31
2024/01/15 23:22:13;;;;;;;4.85;3.15;;;;;;;0.23;79.96;98620.00;7199099;40;20242;31
2024/01/15 23:27:48;;;;;;;5.13;2.90;;;;;;;0.17;80.23;98608.09;7229296;40;20453;31
2024/01/15 23:33:23;;;;;;;4.47;2.90;;;;;;;0.16;80.48;98609.06;7247859;40;20274;31
2024/01/15 23:38:43;;;;;;;7.27;3.17;;;;;;;0.17;80.79;98616.06;7239816;40;20277;31
2024/01/15 23:49:19;;;;;;;6.53;3.53;;;;;;;0.13;80.50;98619.03;7265971;40;21316;31
2024/01/15 23:59:55;;;;;;;6.10;3.63;;;;;;;0.09;80.36;98639.59;7314667;39;21317;31
